createdAt,value
2019-02-26T00:00:20.191Z,80.86
2019-02-26T00:01:21.178Z,80.76
2019-02-26T00:02:21.503Z,81.05
2019-02-26T00:03:22.382Z,81.05
2019-02-26T00:04:21.025Z,81.05
2019-02-26T00:05:21.597Z,81.33
2019-02-26T00:06:20.659Z,81.05
2019-02-26T00:07:23.378Z,81.14
2019-02-26T00:08:21.823Z,81.05
2019-02-26T00:09:27.533Z,80.95
2019-02-26T00:10:24.616Z,80.86
2019-02-26T00:11:24.385Z,81.14
2019-02-26T00:12:23.858Z,81.43
2019-02-26T00:13:23.383Z,80.91
2019-02-26T00:14:22.588Z,81.29
2019-02-26T00:15:21.785Z,81.52
2019-02-26T00:16:21.916Z,81.57
2019-02-26T00:17:22.080Z,81.38
2019-02-26T00:18:23.531Z,81.67
2019-02-26T00:19:22.455Z,81.99
2019-02-26T00:20:22.641Z,81.71
2019-02-26T00:21:24.339Z,81.62
2019-02-26T00:22:22.971Z,81.99
2019-02-26T00:23:23.733Z,81.95
2019-02-26T00:24:23.201Z,82.05
2019-02-26T00:25:23.419Z,82.09
2019-02-26T00:26:23.602Z,81.48
2019-02-26T00:27:25.693Z,81.05
2019-02-26T00:28:23.952Z,82.14
2019-02-26T00:29:25.349Z,81.99
2019-02-26T00:30:24.341Z,81.86
2019-02-26T00:31:26.039Z,82.24
2019-02-26T00:32:24.671Z,82.37
2019-02-26T00:33:26.745Z,82.14
2019-02-26T00:34:25.009Z,82.33
2019-02-26T00:35:25.777Z,82.56
2019-02-26T00:36:27.034Z,82.52
2019-02-26T00:37:26.367Z,82.24
2019-02-26T00:38:25.717Z,81.86
2019-02-26T00:39:27.085Z,81.76
2019-02-26T00:40:25.988Z,82.09
2019-02-26T00:41:26.920Z,81.76
2019-02-26T00:42:26.512Z,81.33
2019-02-26T00:43:28.005Z,81.29
2019-02-26T00:44:27.527Z,81.43
2019-02-26T00:45:27.259Z,81.52
2019-02-26T00:46:28.487Z,81.29
2019-02-26T00:47:29.870Z,81.67
2019-02-26T00:48:27.271Z,82.14
2019-02-26T00:49:28.471Z,82.43
2019-02-26T00:50:28.124Z,82.24
2019-02-26T00:51:27.668Z,82.33
2019-02-26T00:52:28.305Z,82.33
2019-02-26T00:53:28.370Z,82.24
2019-02-26T00:54:29.220Z,82.62
2019-02-26T00:55:29.855Z,82.71
2019-02-26T00:56:29.830Z,82.81
2019-02-26T00:57:31.183Z,82.33
2019-02-26T00:58:28.827Z,82.90
2019-02-26T00:59:28.980Z,82.62
2019-02-26T01:00:30.774Z,82.14
2019-02-26T01:01:29.286Z,82.90
2019-02-26T01:02:29.448Z,82.14
2019-02-26T01:03:29.596Z,82.43
2019-02-26T01:04:29.768Z,82.62
2019-02-26T01:05:29.895Z,82.86
2019-02-26T01:06:31.172Z,83.33
2019-02-26T01:07:30.358Z,83.43
2019-02-26T01:08:30.425Z,83.52
2019-02-26T01:09:31.911Z,83.47
2019-02-26T01:10:30.759Z,83.28
2019-02-26T01:11:30.882Z,83.24
2019-02-26T01:12:32.921Z,83.90
2019-02-26T01:13:32.273Z,84.13
2019-02-26T01:14:31.382Z,84.19
2019-02-26T01:15:31.532Z,84.28
2019-02-26T01:16:31.636Z,84.61
2019-02-26T01:17:33.374Z,84.13
2019-02-26T01:18:31.997Z,84.28
2019-02-26T01:19:33.765Z,83.75
2019-02-26T01:20:32.279Z,83.56
2019-02-26T01:21:34.116Z,83.52
2019-02-26T01:22:33.113Z,83.94
2019-02-26T01:23:32.756Z,83.66
2019-02-26T01:24:32.901Z,83.75
2019-02-26T01:25:33.072Z,84.32
2019-02-26T01:26:33.222Z,84.04
2019-02-26T01:27:33.421Z,84.51
2019-02-26T01:28:33.516Z,84.70
2019-02-26T01:29:33.749Z,84.28
2019-02-26T01:30:36.043Z,84.80
2019-02-26T01:31:34.082Z,84.47
2019-02-26T01:32:35.144Z,84.85
2019-02-26T01:33:36.602Z,84.66
2019-02-26T01:34:35.593Z,84.66
2019-02-26T01:35:37.882Z,84.85
2019-02-26T01:36:38.199Z,84.66
2019-02-26T01:37:38.089Z,84.66
2019-02-26T01:38:39.827Z,84.85
2019-02-26T01:39:42.141Z,84.75
2019-02-26T01:40:39.425Z,85.13
2019-02-26T01:41:37.059Z,84.70
2019-02-26T01:42:37.965Z,84.89
2019-02-26T01:43:37.602Z,84.61
2019-02-26T01:44:38.221Z,84.89
2019-02-26T01:48:19.094Z,83.75
2019-02-26T01:49:21.410Z,83.85
2019-02-26T01:50:40.721Z,83.56
2019-02-26T01:53:14.456Z,83.66
2019-02-26T01:54:14.585Z,83.75
2019-02-26T01:55:15.993Z,83.85
2019-02-26T01:56:14.269Z,83.85
2019-02-26T01:57:17.294Z,83.85
2019-02-26T01:58:16.589Z,83.62
2019-02-26T01:59:18.269Z,83.66
2019-02-26T02:00:15.011Z,83.94
2019-02-26T02:01:16.853Z,83.56
2019-02-26T02:02:18.170Z,83.56
2019-02-26T02:03:15.504Z,83.52
2019-02-26T02:04:17.135Z,83.62
2019-02-26T02:05:15.878Z,83.62
2019-02-26T02:06:17.998Z,84.00
2019-02-26T02:07:16.177Z,84.00
2019-02-26T02:08:17.977Z,84.09
2019-02-26T02:09:18.243Z,84.09
2019-02-26T02:10:16.674Z,84.04
2019-02-26T02:11:16.842Z,83.81
2019-02-26T02:12:17.016Z,83.75
2019-02-26T02:13:17.173Z,83.85
2019-02-26T02:14:17.319Z,83.90
2019-02-26T02:15:20.796Z,83.94
2019-02-26T02:16:17.650Z,83.66
2019-02-26T02:17:17.842Z,83.94
2019-02-26T02:18:20.137Z,83.56
2019-02-26T02:19:20.255Z,83.62
2019-02-26T02:20:21.307Z,83.62
2019-02-26T02:21:18.517Z,83.62
2019-02-26T02:22:19.082Z,84.00
2019-02-26T02:23:20.773Z,84.00
2019-02-26T02:24:20.550Z,84.66
2019-02-26T02:25:19.134Z,84.75
2019-02-26T02:26:19.281Z,84.42
2019-02-26T02:27:20.426Z,84.89
2019-02-26T02:28:23.650Z,83.94
2019-02-26T02:29:21.502Z,84.13
2019-02-26T02:30:26.873Z,84.00
2019-02-26T02:31:22.040Z,84.19
2019-02-26T02:32:20.946Z,84.66
2019-02-26T02:33:24.272Z,84.38
2019-02-26T02:34:20.501Z,84.56
2019-02-26T02:35:20.667Z,84.47
2019-02-26T02:36:23.031Z,83.71
2019-02-26T02:37:24.073Z,83.71
2019-02-26T02:38:21.194Z,83.71
2019-02-26T02:39:23.687Z,83.62
2019-02-26T02:40:21.504Z,84.09
2019-02-26T02:41:21.647Z,84.66
2019-02-26T02:42:22.138Z,84.66
2019-02-26T02:43:23.581Z,85.23
2019-02-26T02:44:23.134Z,85.13
2019-02-26T02:45:22.292Z,84.94
2019-02-26T02:46:22.460Z,85.13
2019-02-26T02:47:25.026Z,85.13
2019-02-26T02:48:22.779Z,85.32
2019-02-26T02:49:22.938Z,84.75
2019-02-26T02:50:23.116Z,84.94
2019-02-26T02:51:25.511Z,84.75
2019-02-26T02:52:24.235Z,84.85
2019-02-26T02:53:24.512Z,84.66
2019-02-26T02:54:26.032Z,85.04
2019-02-26T02:55:23.938Z,84.47
2019-02-26T02:56:24.088Z,84.66
2019-02-26T02:57:25.035Z,84.66
2019-02-26T02:58:26.081Z,84.66
2019-02-26T02:59:24.465Z,84.56
2019-02-26T03:00:26.500Z,84.75
2019-02-26T03:01:25.822Z,84.38
2019-02-26T03:02:24.934Z,84.85
2019-02-26T03:03:25.113Z,84.66
2019-02-26T03:04:27.849Z,84.75
2019-02-26T03:05:25.433Z,84.75
2019-02-26T03:06:28.213Z,84.85
2019-02-26T03:07:28.793Z,84.66
2019-02-26T03:08:25.888Z,84.56
2019-02-26T03:09:26.062Z,85.04
2019-02-26T03:10:30.555Z,84.85
2019-02-26T03:11:26.383Z,84.38
2019-02-26T03:12:26.559Z,84.66
2019-02-26T03:13:27.989Z,84.56
2019-02-26T03:14:26.857Z,84.75
2019-02-26T03:15:29.213Z,84.47
2019-02-26T03:16:27.228Z,84.38
2019-02-26T03:17:27.334Z,84.38
2019-02-26T03:18:27.518Z,84.66
2019-02-26T03:19:29.486Z,84.47
2019-02-26T03:20:30.530Z,84.66
2019-02-26T03:21:30.525Z,84.94
2019-02-26T03:22:28.157Z,84.66
2019-02-26T03:23:28.346Z,84.47
2019-02-26T03:24:30.918Z,84.47
2019-02-26T03:25:29.107Z,84.56
2019-02-26T03:26:28.792Z,84.56
2019-02-26T03:27:31.191Z,85.42
2019-02-26T03:28:29.149Z,85.38
2019-02-26T03:29:29.369Z,85.47
2019-02-26T03:30:33.932Z,85.28
2019-02-26T03:31:34.613Z,85.66
2019-02-26T03:32:29.758Z,85.57
2019-02-26T03:33:29.901Z,85.47
2019-02-26T03:34:30.059Z,85.75
2019-02-26T03:35:30.202Z,85.47
2019-02-26T03:36:31.603Z,85.94
2019-02-26T03:37:31.327Z,85.89
2019-02-26T03:38:32.740Z,85.85
2019-02-26T03:39:35.416Z,86.41
2019-02-26T03:40:33.024Z,86.41
2019-02-26T03:41:31.319Z,86.32
2019-02-26T03:42:33.257Z,85.80
2019-02-26T03:43:34.021Z,85.94
2019-02-26T03:44:31.678Z,85.99
2019-02-26T03:45:31.845Z,86.08
2019-02-26T03:46:31.992Z,85.32
2019-02-26T03:47:32.152Z,85.99
2019-02-26T03:48:32.317Z,85.38
2019-02-26T03:49:32.473Z,85.70
2019-02-26T03:50:32.639Z,85.70
2019-02-26T03:51:32.835Z,85.47
2019-02-26T03:52:32.899Z,86.18
2019-02-26T03:53:34.262Z,85.85
2019-02-26T03:54:36.980Z,86.13
2019-02-26T03:55:34.200Z,86.27
2019-02-26T03:56:33.506Z,86.46
2019-02-26T03:57:33.652Z,85.89
2019-02-26T03:58:33.826Z,85.99
2019-02-26T03:59:33.986Z,85.80
2019-02-26T04:00:34.688Z,85.61
2019-02-26T04:01:34.327Z,85.70
2019-02-26T04:02:36.760Z,85.70
2019-02-26T04:03:59.701Z,85.70
2019-02-26T04:04:48.557Z,85.51
2019-02-26T04:05:35.047Z,85.61
2019-02-26T04:06:36.594Z,86.27
2019-02-26T04:07:36.108Z,85.70
2019-02-26T04:11:30.317Z,85.23
2019-02-26T04:12:33.235Z,85.70
2019-02-26T04:13:30.644Z,85.61
2019-02-26T04:14:31.292Z,85.99
2019-02-26T04:15:35.129Z,85.61
2019-02-26T04:16:32.449Z,85.80
2019-02-26T04:17:33.443Z,85.80
2019-02-26T04:18:34.133Z,86.41
2019-02-26T04:19:31.631Z,85.80
2019-02-26T04:20:31.857Z,85.66
2019-02-26T04:21:32.269Z,85.66
2019-02-26T04:22:32.100Z,85.57
2019-02-26T04:23:33.182Z,85.47
2019-02-26T04:24:34.934Z,85.94
2019-02-26T04:25:33.950Z,85.94
2019-02-26T04:26:35.110Z,85.94
2019-02-26T04:27:33.592Z,86.41
2019-02-26T04:28:34.087Z,86.22
2019-02-26T04:29:35.369Z,86.13
2019-02-26T04:30:36.567Z,86.41
2019-02-26T04:31:33.382Z,86.13
2019-02-26T04:32:35.577Z,86.51
2019-02-26T04:33:35.967Z,86.79
2019-02-26T04:34:33.717Z,86.41
2019-02-26T04:35:33.917Z,86.60
2019-02-26T04:36:34.369Z,86.32
2019-02-26T04:37:35.411Z,86.32
2019-02-26T04:38:34.340Z,86.60
2019-02-26T04:39:34.880Z,86.60
2019-02-26T04:40:36.310Z,86.60
2019-02-26T04:41:34.638Z,86.51
2019-02-26T04:42:36.010Z,86.41
2019-02-26T04:43:36.290Z,86.22
2019-02-26T04:44:35.147Z,86.22
2019-02-26T04:45:35.226Z,86.04
2019-02-26T04:46:36.892Z,86.32
2019-02-26T04:47:35.663Z,86.22
2019-02-26T04:48:35.744Z,86.51
2019-02-26T04:49:38.496Z,86.60
2019-02-26T04:50:38.772Z,86.51
2019-02-26T04:51:39.085Z,86.51
2019-02-26T04:52:40.071Z,86.60
2019-02-26T04:53:37.053Z,86.32
2019-02-26T04:54:39.384Z,86.41
2019-02-26T04:55:39.164Z,86.41
2019-02-26T04:56:39.490Z,86.79
2019-02-26T04:57:42.008Z,86.51
2019-02-26T04:58:39.357Z,86.51
2019-02-26T04:59:38.750Z,86.32
2019-02-26T05:02:39.697Z,86.22
2019-02-26T05:03:13.596Z,86.22
2019-02-26T05:04:10.373Z,85.75
2019-02-26T05:05:10.530Z,85.66
2019-02-26T05:06:10.910Z,85.75
2019-02-26T05:07:13.456Z,85.75
2019-02-26T05:08:12.831Z,86.22
2019-02-26T05:09:11.207Z,85.47
2019-02-26T05:10:11.376Z,85.85
2019-02-26T05:11:14.893Z,85.66
2019-02-26T05:12:11.825Z,86.04
2019-02-26T05:13:11.865Z,86.13
2019-02-26T05:14:15.006Z,86.51
2019-02-26T05:15:14.486Z,86.41
2019-02-26T05:16:12.430Z,86.70
2019-02-26T05:17:12.461Z,87.08
2019-02-26T05:18:13.250Z,86.89
2019-02-26T05:19:13.746Z,86.89
2019-02-26T05:20:15.543Z,86.89
2019-02-26T05:21:13.094Z,87.08
2019-02-26T05:22:13.188Z,87.17
2019-02-26T05:23:13.261Z,86.51
2019-02-26T05:24:15.725Z,86.13
2019-02-26T05:25:16.351Z,86.79
2019-02-26T05:26:15.223Z,86.51
2019-02-26T05:27:15.523Z,86.41
2019-02-26T05:28:15.622Z,86.51
2019-02-26T05:29:14.267Z,86.79
2019-02-26T05:30:17.254Z,86.89
2019-02-26T05:31:17.188Z,86.89
2019-02-26T05:32:14.830Z,87.27
2019-02-26T05:33:14.986Z,87.08
2019-02-26T05:34:17.419Z,87.08
2019-02-26T05:35:17.324Z,86.89
2019-02-26T05:36:17.116Z,86.22
2019-02-26T05:37:15.603Z,86.41
2019-02-26T05:38:15.821Z,86.22
2019-02-26T05:39:20.292Z,86.04
2019-02-26T05:40:18.951Z,86.13
2019-02-26T05:41:16.305Z,86.32
2019-02-26T05:42:16.456Z,86.51
2019-02-26T05:43:16.636Z,86.22
2019-02-26T05:44:16.771Z,86.70
2019-02-26T05:45:16.966Z,86.89
2019-02-26T05:46:19.557Z,86.79
2019-02-26T05:47:20.669Z,86.32
2019-02-26T05:48:18.617Z,86.89
2019-02-26T05:49:19.512Z,86.89
2019-02-26T05:50:18.039Z,86.98
2019-02-26T05:51:18.031Z,86.70
2019-02-26T05:52:18.128Z,86.89
2019-02-26T05:53:18.387Z,86.51
2019-02-26T05:54:21.488Z,87.08
2019-02-26T05:55:22.793Z,86.89
2019-02-26T05:56:22.629Z,87.27
2019-02-26T05:57:31.282Z,87.36
2019-02-26T05:58:21.602Z,87.08
2019-02-26T05:59:21.674Z,86.89
2019-02-26T06:00:22.623Z,87.36
2019-02-26T06:01:21.785Z,87.46
2019-02-26T06:02:21.654Z,87.74
2019-02-26T06:03:20.015Z,87.46
2019-02-26T06:04:20.780Z,87.65
2019-02-26T06:05:22.547Z,87.36
2019-02-26T06:06:23.245Z,87.65
2019-02-26T06:07:25.100Z,87.74
2019-02-26T06:08:25.589Z,87.65
2019-02-26T06:09:25.398Z,87.74
2019-02-26T06:10:24.588Z,87.17
2019-02-26T06:11:23.439Z,87.08
2019-02-26T06:12:22.482Z,87.08
2019-02-26T06:13:23.263Z,86.98
2019-02-26T06:14:24.635Z,86.70
2019-02-26T06:15:25.230Z,86.70
2019-02-26T06:16:24.386Z,86.70
2019-02-26T06:17:25.872Z,86.79
2019-02-26T06:18:24.601Z,86.98
2019-02-26T06:19:23.569Z,87.08
2019-02-26T06:20:26.140Z,86.98
2019-02-26T06:21:25.936Z,86.89
2019-02-26T06:22:42.650Z,86.89
2019-02-26T06:23:25.539Z,86.98
2019-02-26T06:24:24.838Z,87.17
2019-02-26T06:25:26.527Z,86.79
2019-02-26T06:26:36.092Z,86.89
2019-02-26T06:27:42.640Z,87.27
2019-02-26T06:28:40.100Z,87.17
2019-02-26T06:29:27.225Z,86.85
2019-02-26T06:30:25.250Z,87.65
2019-02-26T06:31:27.898Z,87.46
2019-02-26T06:32:30.391Z,87.36
2019-02-26T06:33:24.988Z,86.89
2019-02-26T06:34:25.095Z,87.55
2019-02-26T06:35:25.196Z,87.55
2019-02-26T06:36:25.872Z,87.65
2019-02-26T06:37:25.460Z,86.79
2019-02-26T06:38:26.406Z,86.98
2019-02-26T06:39:26.857Z,86.89
2019-02-26T06:40:26.377Z,87.65
2019-02-26T06:41:25.960Z,87.17
2019-02-26T06:42:28.229Z,87.17
2019-02-26T06:43:26.410Z,87.27
2019-02-26T06:44:26.523Z,86.79
2019-02-26T06:45:26.604Z,86.51
2019-02-26T06:46:28.845Z,86.41
2019-02-26T06:47:29.153Z,86.41
2019-02-26T06:48:29.677Z,86.41
2019-02-26T06:49:28.998Z,86.13
2019-02-26T06:50:27.504Z,86.41
2019-02-26T06:51:28.310Z,85.94
2019-02-26T06:52:29.957Z,85.66
2019-02-26T06:53:27.969Z,85.66
2019-02-26T06:54:29.130Z,85.57
2019-02-26T06:55:28.321Z,85.66
2019-02-26T06:56:30.081Z,85.66
2019-02-26T06:57:28.661Z,85.66
2019-02-26T06:58:28.819Z,85.94
2019-02-26T06:59:29.468Z,86.04
2019-02-26T07:00:29.475Z,86.13
2019-02-26T07:01:32.321Z,85.85
2019-02-26T07:02:29.588Z,85.47
2019-02-26T07:03:29.928Z,85.00
2019-02-26T07:04:30.286Z,85.47
2019-02-26T07:05:30.142Z,85.61
2019-02-26T07:06:32.613Z,85.70
2019-02-26T07:07:30.692Z,85.51
2019-02-26T07:08:31.000Z,85.13
2019-02-26T07:09:32.365Z,84.66
2019-02-26T07:10:33.225Z,84.66
2019-02-26T07:11:33.126Z,84.75
2019-02-26T07:12:31.446Z,84.28
2019-02-26T07:13:33.756Z,84.47
2019-02-26T07:14:32.700Z,84.56
2019-02-26T07:15:32.067Z,83.90
2019-02-26T07:16:32.145Z,84.19
2019-02-26T07:17:34.305Z,83.52
2019-02-26T07:18:32.537Z,83.33
2019-02-26T07:19:33.291Z,83.24
2019-02-26T07:20:34.268Z,83.05
2019-02-26T07:21:33.086Z,82.71
2019-02-26T07:22:32.962Z,82.43
2019-02-26T07:23:35.102Z,82.24
2019-02-26T07:24:33.377Z,81.33
2019-02-26T07:25:36.230Z,79.00
2019-02-26T07:26:33.728Z,76.86
2019-02-26T07:27:34.244Z,74.96
2019-02-26T07:28:34.092Z,73.38
2019-02-26T07:29:37.358Z,72.19
2019-02-26T07:30:35.328Z,70.86
2019-02-26T07:31:35.507Z,69.18
2019-02-26T07:32:35.923Z,67.85
2019-02-26T07:33:36.548Z,67.47
2019-02-26T07:34:34.782Z,67.38
2019-02-26T07:35:35.498Z,67.09
2019-02-26T07:36:35.173Z,66.55
2019-02-26T07:37:37.554Z,65.89
2019-02-26T07:38:41.164Z,65.80
2019-02-26T07:39:35.641Z,65.03
2019-02-26T07:40:37.777Z,64.37
2019-02-26T07:41:35.948Z,64.02
2019-02-26T07:42:37.273Z,63.45
2019-02-26T07:43:38.755Z,62.62
2019-02-26T07:44:36.502Z,62.24
2019-02-26T07:45:36.905Z,61.86
2019-02-26T07:46:38.497Z,61.00
2019-02-26T07:47:37.011Z,60.27
2019-02-26T07:48:37.095Z,59.42
2019-02-26T07:49:38.174Z,58.97
2019-02-26T07:50:40.053Z,57.57
2019-02-26T07:51:38.572Z,56.55
2019-02-26T07:52:37.786Z,55.88
2019-02-26T07:53:42.018Z,54.48
2019-02-26T07:54:40.486Z,54.10
2019-02-26T07:55:40.067Z,52.69
2019-02-26T07:56:38.409Z,52.05
2019-02-26T07:57:40.346Z,50.90
2019-02-26T07:58:40.692Z,50.35
2019-02-26T07:59:39.788Z,49.14
2019-02-26T08:00:40.298Z,47.71
2019-02-26T08:01:39.897Z,47.06
2019-02-26T08:02:39.337Z,46.87
2019-02-26T08:03:41.534Z,46.58
2019-02-26T08:04:41.795Z,46.01
2019-02-26T08:05:39.747Z,45.94
2019-02-26T08:06:39.906Z,45.45
2019-02-26T08:07:40.318Z,44.69
2019-02-26T08:08:42.025Z,44.04
2019-02-26T08:09:40.438Z,44.33
2019-02-26T08:10:42.852Z,44.26
2019-02-26T08:11:41.264Z,43.56
2019-02-26T08:12:42.573Z,43.10
2019-02-26T08:13:41.147Z,43.97
2019-02-26T08:14:42.978Z,43.10
2019-02-26T08:15:41.466Z,43.32
2019-02-26T08:16:41.645Z,42.17
2019-02-26T08:17:45.656Z,42.27
2019-02-26T08:18:42.856Z,41.88
2019-02-26T08:19:46.190Z,42.07
2019-02-26T08:20:42.270Z,42.07
2019-02-26T08:21:42.638Z,41.97
2019-02-26T08:22:42.646Z,42.14
2019-02-26T08:23:43.663Z,42.27
2019-02-26T08:24:43.140Z,42.36
2019-02-26T08:25:43.207Z,41.88
2019-02-26T08:26:45.135Z,42.27
2019-02-26T08:27:43.929Z,41.97
2019-02-26T08:28:45.749Z,42.17
2019-02-26T08:29:43.914Z,42.05
2019-02-26T08:30:45.219Z,42.05
2019-02-26T08:31:46.664Z,42.53
2019-02-26T08:32:48.341Z,42.72
2019-02-26T08:33:48.924Z,42.53
2019-02-26T08:34:45.997Z,42.72
2019-02-26T08:35:45.032Z,43.01
2019-02-26T08:36:46.766Z,43.59
2019-02-26T08:37:45.344Z,42.82
2019-02-26T08:38:45.939Z,42.70
2019-02-26T08:39:58.236Z,43.56
2019-02-26T08:40:54.428Z,43.56
2019-02-26T08:42:00.021Z,43.85
2019-02-26T08:42:46.243Z,43.77
2019-02-26T08:43:49.092Z,44.04
2019-02-26T08:44:55.934Z,43.76
2019-02-26T08:45:55.604Z,43.76
2019-02-26T08:46:59.671Z,44.31
2019-02-26T08:47:57.923Z,44.21
2019-02-26T08:48:48.446Z,44.79
2019-02-26T08:49:48.045Z,44.98
2019-02-26T08:50:48.089Z,45.17
2019-02-26T08:51:47.710Z,45.17
2019-02-26T08:52:50.142Z,45.19
2019-02-26T08:53:49.526Z,44.88
2019-02-26T08:54:48.361Z,44.90
2019-02-26T08:55:48.423Z,44.88
2019-02-26T08:56:48.654Z,45.26
2019-02-26T08:57:51.223Z,46.03
2019-02-26T08:58:49.402Z,45.86
2019-02-26T08:59:49.760Z,45.76
2019-02-26T09:00:49.397Z,46.03
2019-02-26T09:01:49.499Z,45.74
2019-02-26T09:02:53.795Z,46.31
2019-02-26T09:03:50.794Z,46.41
2019-02-26T09:04:50.007Z,46.82
2019-02-26T09:05:51.602Z,45.86
2019-02-26T09:06:52.318Z,45.19
2019-02-26T09:07:51.115Z,45.29
2019-02-26T09:08:50.660Z,45.29
2019-02-26T09:09:52.511Z,45.02
2019-02-26T09:10:50.891Z,44.45
2019-02-26T09:11:52.812Z,44.93
2019-02-26T09:12:52.091Z,44.64
2019-02-26T09:13:51.407Z,44.35
2019-02-26T09:14:51.645Z,44.16
2019-02-26T09:15:52.533Z,44.35
2019-02-26T09:16:52.606Z,43.90
2019-02-26T09:17:52.034Z,43.99
2019-02-26T09:18:52.856Z,43.23
2019-02-26T09:19:54.670Z,43.53
2019-02-26T09:20:52.601Z,43.34
2019-02-26T09:21:54.617Z,43.91
2019-02-26T09:22:54.492Z,43.53
2019-02-26T09:23:56.787Z,43.46
2019-02-26T09:24:54.453Z,43.24
2019-02-26T09:25:54.880Z,42.86
2019-02-26T09:26:54.953Z,43.34
2019-02-26T09:27:53.770Z,42.86
2019-02-26T09:28:55.445Z,43.53
2019-02-26T09:29:54.144Z,43.17
2019-02-26T09:30:56.308Z,43.27
2019-02-26T09:31:54.478Z,43.36
2019-02-26T09:32:54.567Z,43.36
2019-02-26T09:33:54.702Z,42.69
2019-02-26T09:34:56.836Z,42.61
2019-02-26T09:35:56.742Z,42.79
2019-02-26T09:36:58.106Z,42.81
2019-02-26T09:38:00.094Z,41.85
2019-02-26T09:38:55.734Z,41.75
2019-02-26T09:39:57.390Z,41.67
2019-02-26T09:40:57.102Z,41.10
2019-02-26T09:41:58.892Z,41.12
2019-02-26T09:42:59.647Z,41.02
2019-02-26T09:43:56.618Z,40.06
2019-02-26T09:44:57.738Z,39.87
2019-02-26T09:45:56.962Z,39.78
2019-02-26T09:46:58.300Z,39.99
2019-02-26T09:48:01.126Z,40.66
2019-02-26T09:48:57.930Z,40.08
2019-02-26T09:49:58.440Z,39.81
2019-02-26T09:50:57.660Z,39.91
2019-02-26T09:52:01.032Z,39.33
2019-02-26T09:52:59.056Z,38.59
2019-02-26T09:53:59.058Z,38.39
2019-02-26T09:54:58.524Z,38.41
2019-02-26T09:55:58.657Z,38.12
2019-02-26T09:56:58.840Z,38.31
2019-02-26T09:57:59.145Z,37.83
2019-02-26T09:58:59.602Z,37.45
2019-02-26T10:00:00.177Z,37.06
2019-02-26T10:01:00.543Z,37.37
2019-02-26T10:02:01.267Z,37.16
2019-02-26T10:02:59.965Z,36.77
2019-02-26T10:04:03.090Z,37.56
2019-02-26T10:05:00.270Z,37.26
2019-02-26T10:06:00.531Z,37.35
2019-02-26T10:07:02.252Z,37.54
2019-02-26T10:08:03.458Z,37.24
2019-02-26T10:09:00.987Z,37.54
2019-02-26T10:10:03.993Z,37.54
2019-02-26T10:11:02.695Z,37.64
2019-02-26T10:12:02.847Z,37.35
2019-02-26T10:13:04.557Z,37.34
2019-02-26T10:14:03.311Z,38.31
2019-02-26T10:15:05.319Z,37.35
2019-02-26T10:16:04.499Z,38.02
2019-02-26T10:17:03.204Z,38.51
2019-02-26T10:18:04.857Z,38.60
2019-02-26T10:19:03.837Z,38.29
2019-02-26T10:20:04.890Z,38.49
2019-02-26T10:21:03.137Z,38.20
2019-02-26T10:22:06.253Z,38.31
2019-02-26T10:23:06.042Z,38.22
2019-02-26T10:24:04.599Z,38.33
2019-02-26T10:25:03.737Z,37.37
2019-02-26T10:26:05.779Z,37.85
2019-02-26T10:27:06.033Z,37.45
2019-02-26T10:28:08.652Z,37.64
2019-02-26T10:29:04.868Z,37.37
2019-02-26T10:30:07.194Z,37.66
2019-02-26T10:31:06.957Z,37.37
2019-02-26T10:32:05.803Z,37.87
2019-02-26T10:33:06.112Z,37.10
2019-02-26T10:34:07.885Z,36.91
2019-02-26T10:35:06.498Z,36.23
2019-02-26T10:36:07.691Z,36.13
2019-02-26T10:37:06.100Z,36.91
2019-02-26T10:38:08.257Z,36.15
2019-02-26T10:39:07.391Z,36.63
2019-02-26T10:40:07.646Z,36.27
2019-02-26T10:41:06.287Z,35.50
2019-02-26T10:42:06.742Z,35.32
2019-02-26T10:43:07.519Z,34.38
2019-02-26T10:44:07.355Z,33.89
2019-02-26T10:45:06.912Z,34.00
2019-02-26T10:46:07.031Z,32.94
2019-02-26T10:47:08.725Z,32.67
2019-02-26T10:48:09.098Z,32.39
2019-02-26T10:49:07.986Z,31.89
2019-02-26T10:50:10.138Z,31.23
2019-02-26T10:51:08.979Z,30.75
2019-02-26T10:52:10.856Z,30.75
2019-02-26T10:53:11.541Z,30.65
2019-02-26T10:54:12.162Z,30.94
2019-02-26T10:55:12.761Z,30.85
2019-02-26T10:56:09.068Z,30.75
2019-02-26T10:57:11.394Z,31.23
2019-02-26T10:58:12.094Z,31.62
2019-02-26T10:59:12.534Z,30.75
2019-02-26T11:00:10.908Z,30.63
2019-02-26T11:01:09.643Z,31.41
2019-02-26T11:02:10.085Z,31.91
2019-02-26T11:03:12.091Z,32.01
2019-02-26T11:04:10.077Z,31.43
2019-02-26T11:05:11.357Z,31.04
2019-02-26T11:06:13.126Z,30.57
2019-02-26T11:07:11.531Z,30.88
2019-02-26T11:08:10.947Z,31.16
2019-02-26T11:09:11.185Z,30.31
2019-02-26T11:10:11.932Z,29.83
2019-02-26T11:11:12.969Z,30.02
2019-02-26T11:12:12.945Z,30.13
2019-02-26T11:13:12.961Z,29.53
2019-02-26T11:14:16.007Z,29.64
2019-02-26T11:15:12.346Z,30.04
2019-02-26T11:16:17.410Z,29.47
2019-02-26T11:17:12.654Z,29.06
2019-02-26T11:18:15.143Z,29.47
2019-02-26T11:19:13.011Z,28.70
2019-02-26T11:20:13.201Z,28.70
2019-02-26T11:21:12.992Z,28.32
2019-02-26T11:22:15.647Z,28.13
2019-02-26T11:23:14.256Z,28.04
2019-02-26T11:24:13.522Z,28.04
2019-02-26T11:25:15.785Z,27.37
2019-02-26T11:26:15.404Z,27.47
2019-02-26T11:27:14.129Z,27.29
2019-02-26T11:28:14.315Z,27.87
2019-02-26T11:29:14.595Z,28.17
2019-02-26T11:30:14.743Z,27.29
2019-02-26T11:31:16.648Z,27.29
2019-02-26T11:32:15.521Z,26.82
2019-02-26T11:33:16.173Z,27.03
2019-02-26T11:34:15.248Z,26.83
2019-02-26T11:35:17.048Z,26.23
2019-02-26T11:36:15.818Z,25.95
2019-02-26T11:37:15.799Z,26.04
2019-02-26T11:38:17.111Z,26.43
2019-02-26T11:39:16.622Z,26.72
2019-02-26T11:40:17.313Z,26.53
2019-02-26T11:41:16.601Z,26.33
2019-02-26T11:42:18.557Z,25.85
2019-02-26T11:43:19.970Z,24.97
2019-02-26T11:44:20.590Z,24.68
2019-02-26T11:45:19.296Z,24.58
2019-02-26T11:46:17.749Z,24.60
2019-02-26T11:47:18.339Z,23.91
2019-02-26T11:48:18.087Z,23.93
2019-02-26T11:49:19.387Z,24.32
2019-02-26T11:50:18.248Z,23.91
2019-02-26T11:51:19.979Z,23.24
2019-02-26T11:52:20.190Z,22.76
2019-02-26T11:53:18.922Z,23.35
2019-02-26T11:54:19.075Z,23.82
2019-02-26T11:55:19.524Z,23.73
2019-02-26T11:56:21.296Z,23.83
2019-02-26T11:57:19.578Z,23.82
2019-02-26T11:58:21.653Z,23.73
2019-02-26T11:59:20.054Z,23.94
2019-02-26T12:00:25.349Z,23.84
2019-02-26T12:01:20.357Z,23.84
2019-02-26T12:02:26.242Z,23.17
2019-02-26T12:03:22.771Z,22.58
2019-02-26T12:04:20.787Z,22.38
2019-02-26T12:05:22.998Z,22.67
2019-02-26T12:06:21.166Z,22.69
2019-02-26T12:07:22.387Z,22.59
2019-02-26T12:08:22.828Z,21.43
2019-02-26T12:09:21.768Z,21.53
2019-02-26T12:10:21.913Z,20.36
2019-02-26T12:11:23.315Z,19.87
2019-02-26T12:12:23.462Z,20.07
2019-02-26T12:13:24.909Z,19.49
2019-02-26T12:14:22.620Z,19.19
2019-02-26T12:15:22.770Z,19.09
2019-02-26T12:16:22.874Z,19.09
2019-02-26T12:17:23.095Z,19.29
2019-02-26T12:18:23.315Z,19.76
2019-02-26T12:19:25.496Z,19.96
2019-02-26T12:20:24.238Z,20.45
2019-02-26T12:21:25.286Z,20.36
2019-02-26T12:22:25.103Z,19.96
2019-02-26T12:23:24.154Z,19.78
2019-02-26T12:24:26.579Z,19.58
2019-02-26T12:25:24.517Z,19.48
2019-02-26T12:26:25.594Z,19.29
2019-02-26T12:27:25.006Z,18.70
2019-02-26T12:28:26.081Z,19.19
2019-02-26T12:29:26.041Z,19.19
2019-02-26T12:30:25.428Z,18.80
2019-02-26T12:31:28.409Z,18.52
2019-02-26T12:32:27.510Z,18.23
2019-02-26T12:33:25.863Z,17.72
2019-02-26T12:34:26.143Z,17.92
2019-02-26T12:35:26.299Z,18.41
2019-02-26T12:36:26.623Z,18.21
2019-02-26T12:37:26.693Z,18.80
2019-02-26T12:38:26.833Z,18.21
2019-02-26T12:39:29.125Z,18.79
2019-02-26T12:40:27.122Z,18.79
2019-02-26T12:41:27.311Z,18.79
2019-02-26T12:42:27.465Z,18.59
2019-02-26T12:43:27.639Z,18.49
2019-02-26T12:44:29.075Z,18.49
2019-02-26T12:45:28.544Z,18.78
2019-02-26T12:46:30.932Z,18.98
2019-02-26T12:47:28.273Z,18.68
2019-02-26T12:48:28.609Z,19.37
2019-02-26T12:49:32.301Z,19.06
2019-02-26T12:50:30.818Z,19.65
2019-02-26T12:51:31.758Z,19.85
2019-02-26T12:52:30.383Z,19.56
2019-02-26T12:53:29.608Z,19.37
2019-02-26T12:54:33.257Z,18.49
2019-02-26T12:55:32.969Z,18.68
2019-02-26T12:56:33.922Z,18.47
2019-02-26T12:57:31.623Z,17.79
2019-02-26T12:58:30.555Z,17.58
2019-02-26T12:59:31.389Z,17.58
2019-02-26T13:00:31.264Z,17.68
2019-02-26T13:01:33.272Z,17.77
2019-02-26T13:02:31.094Z,17.18
2019-02-26T13:03:31.417Z,17.36